Time;durP1;ratioP1;P1;durP2;ratioP2;P2;SDS_P1;SDS_P2;PMS_P1;PMS_P2;Temp;Humidity;BMP_temperature;BMP_pressure;BME280_temperature;BME280_humidity;BME280_pressure;Samples;Min_cycle;Max_cycle;Signal;HPM_P1;HPM_P2
2023/10/18 00:01:33;;;;;;;0.20;0.10;;;;;;;;;;4994771;28;20092;-81
2023/10/18 00:03:59;;;;;;;0.20;0.10;;;;;;;;;;4994068;28;20033;-80
2023/10/18 00:06:26;;;;;;;0.20;0.10;;;;;;;;;;4987616;28;20074;-81
2023/10/18 00:08:58;;;;;;;0.20;0.10;;;;;;;;;;4996604;28;20432;-82
2023/10/18 00:11:25;;;;;;;0.20;0.10;;;;;;;;;;4997135;28;20117;-82
2023/10/18 00:13:52;;;;;;;0.20;0.00;;;;;;;;;;4995634;28;20970;-80
2023/10/18 00:16:19;;;;;;;0.20;0.00;;;;;;;;;;5001661;28;20044;-81
2023/10/18 00:18:45;;;;;;;0.20;0.00;;;;;;;;;;5001696;28;20048;-80
2023/10/18 00:21:12;;;;;;;0.20;0.10;;;;;;;;;;4997778;28;20222;-80
2023/10/18 00:23:39;;;;;;;0.20;0.20;;;;;;;;;;5014542;28;20050;-81
2023/10/18 00:26:09;;;;;;;0.20;0.20;;;;;;;;;;4994082;28;20417;-82
2023/10/18 00:28:38;;;;;;;0.20;0.10;;;;;;;;;;5004753;28;20085;-80
2023/10/18 00:31:31;;;;;;;0.20;0.00;;;;;;;;;;5004385;28;20541;-81
2023/10/18 00:33:57;;;;;;;0.20;0.08;;;;;;;;;;4981976;28;20302;-82
2023/10/18 00:36:23;;;;;;;0.20;0.00;;;;;;;;;;4998707;28;20049;-82
2023/10/18 00:38:49;;;;;;;0.20;0.10;;;;;;;;;;4994550;28;20511;-81
2023/10/18 00:41:17;;;;;;;0.20;0.05;;;;;;;;;;4989272;28;20049;-82
2023/10/18 00:43:46;;;;;;;2.25;0.47;;;;;;;;;;4988813;28;20193;-81
2023/10/18 00:46:15;;;;;;;0.20;0.10;;;;;;;;;;5014681;28;20076;-81
2023/10/18 00:48:44;;;;;;;0.20;0.10;;;;;;;;;;4988080;28;20486;-82
2023/10/18 00:51:11;;;;;;;0.20;0.00;;;;;;;;;;4995322;28;20064;-81
2023/10/18 00:53:38;;;;;;;0.32;0.30;;;;;;;;;;4991482;28;20141;-83
2023/10/18 00:56:05;;;;;;;0.20;0.00;;;;;;;;;;4998547;28;20066;-79
2023/10/18 00:58:32;;;;;;;0.20;0.10;;;;;;;;;;5003317;28;20041;-81
2023/10/18 01:00:59;;;;;;;0.20;0.10;;;;;;;;;;4999154;28;20457;-81
2023/10/18 01:03:29;;;;;;;0.20;0.10;;;;;;;;;;4992516;28;20064;-80
2023/10/18 01:06:04;;;;;;;0.20;0.00;;;;;;;;;;5018734;28;20050;-79
2023/10/18 01:08:30;;;;;;;0.20;0.00;;;;;;;;;;4992251;28;20049;-81
2023/10/18 01:11:04;;;;;;;0.20;0.10;;;;;;;;;;4978575;28;20038;-80
2023/10/18 01:13:31;;;;;;;0.40;0.30;;;;;;;;;;4989957;28;20065;-82
2023/10/18 01:15:59;;;;;;;0.20;0.10;;;;;;;;;;5009571;28;20049;-80
2023/10/18 01:18:25;;;;;;;0.20;0.08;;;;;;;;;;4987181;28;20105;-82
2023/10/18 01:20:52;;;;;;;0.20;0.00;;;;;;;;;;4992377;28;20045;-82
2023/10/18 01:23:18;;;;;;;0.20;0.17;;;;;;;;;;4994613;28;20375;-81
2023/10/18 01:25:45;;;;;;;0.73;0.65;;;;;;;;;;4995595;28;20096;-81
2023/10/18 01:28:11;;;;;;;0.20;0.10;;;;;;;;;;4980246;28;20057;-81
2023/10/18 01:30:37;;;;;;;0.20;0.10;;;;;;;;;;4999431;28;20525;-81
2023/10/18 01:33:10;;;;;;;0.20;0.05;;;;;;;;;;5004594;28;20042;-81
2023/10/18 01:35:46;;;;;;;0.20;0.00;;;;;;;;;;5001685;28;20154;-81
2023/10/18 01:38:25;;;;;;;0.20;0.20;;;;;;;;;;4998023;28;20034;-81
2023/10/18 01:40:55;;;;;;;0.20;0.10;;;;;;;;;;5000849;28;20457;-82
2023/10/18 01:43:25;;;;;;;0.20;0.10;;;;;;;;;;4996536;28;20041;-81
2023/10/18 01:45:51;;;;;;;0.20;0.10;;;;;;;;;;4999707;28;21537;-81
2023/10/18 01:48:20;;;;;;;0.20;0.10;;;;;;;;;;4998230;28;20061;-80
2023/10/18 01:50:50;;;;;;;0.20;0.10;;;;;;;;;;5002948;28;20098;-82
2023/10/18 01:53:16;;;;;;;0.20;0.10;;;;;;;;;;4997598;28;20052;-81
2023/10/18 01:55:53;;;;;;;0.30;0.30;;;;;;;;;;5013125;28;20042;-82
2023/10/18 01:58:24;;;;;;;0.20;0.10;;;;;;;;;;4997219;28;20034;-81
2023/10/18 02:00:53;;;;;;;0.20;0.08;;;;;;;;;;5000012;28;20038;-81
2023/10/18 02:03:19;;;;;;;0.63;0.40;;;;;;;;;;4997913;28;20587;-81
2023/10/18 02:05:48;;;;;;;1.20;0.70;;;;;;;;;;4998070;28;20040;-81
2023/10/18 02:08:15;;;;;;;0.20;0.00;;;;;;;;;;5000394;28;20045;-81
2023/10/18 02:10:45;;;;;;;0.20;0.10;;;;;;;;;;4988254;28;20046;-81
2023/10/18 02:13:13;;;;;;;0.20;0.03;;;;;;;;;;5016283;28;20758;-81
2023/10/18 02:15:40;;;;;;;0.20;0.10;;;;;;;;;;5000380;28;20068;-81
2023/10/18 02:18:10;;;;;;;0.20;0.10;;;;;;;;;;4989958;28;20083;-81
2023/10/18 02:20:41;;;;;;;0.20;0.10;;;;;;;;;;4995108;28;20164;-82
2023/10/18 02:23:14;;;;;;;1.65;0.40;;;;;;;;;;4982741;28;20580;-82
2023/10/18 02:25:43;;;;;;;0.20;0.10;;;;;;;;;;4980423;28;20066;-80
2023/10/18 02:28:23;;;;;;;0.20;0.10;;;;;;;;;;4984547;28;20052;-81
2023/10/18 02:30:57;;;;;;;0.20;0.10;;;;;;;;;;5003511;28;20116;-81
2023/10/18 02:33:26;;;;;;;0.73;0.47;;;;;;;;;;4989128;28;20125;-82
2023/10/18 02:35:57;;;;;;;0.32;0.30;;;;;;;;;;5010025;28;20512;-82
2023/10/18 02:38:24;;;;;;;0.20;0.10;;;;;;;;;;5014854;28;20037;-80
2023/10/18 02:40:50;;;;;;;0.30;0.25;;;;;;;;;;5011247;28;20141;-81
2023/10/18 02:43:16;;;;;;;0.20;0.20;;;;;;;;;;5011435;28;20045;-81
2023/10/18 02:45:51;;;;;;;0.20;0.10;;;;;;;;;;5010717;28;20041;-80
2023/10/18 02:48:22;;;;;;;0.45;0.32;;;;;;;;;;5032893;28;20413;-81
2023/10/18 02:50:49;;;;;;;0.40;0.40;;;;;;;;;;5022134;28;20037;-80
2023/10/18 02:53:17;;;;;;;4.40;0.40;;;;;;;;;;5012689;28;20157;-81
2023/10/18 02:55:49;;;;;;;0.20;0.10;;;;;;;;;;5006982;28;20038;-79
2023/10/18 02:58:15;;;;;;;0.20;0.05;;;;;;;;;;5016534;28;20038;-81
2023/10/18 03:00:44;;;;;;;0.20;0.08;;;;;;;;;;5009080;28;20084;-81
2023/10/18 03:03:12;;;;;;;0.20;0.10;;;;;;;;;;5009934;28;20057;-82
2023/10/18 03:05:41;;;;;;;0.20;0.10;;;;;;;;;;5006244;28;20124;-82
2023/10/18 03:08:10;;;;;;;0.20;0.10;;;;;;;;;;5007748;28;20041;-80
2023/10/18 03:10:44;;;;;;;0.45;0.45;;;;;;;;;;5002266;28;20487;-81
2023/10/18 03:13:11;;;;;;;0.20;0.00;;;;;;;;;;5007417;28;20186;-81
2023/10/18 03:15:56;;;;;;;0.20;0.00;;;;;;;;;;5013172;28;20481;-80
2023/10/18 03:18:24;;;;;;;0.20;0.00;;;;;;;;;;5013498;28;20670;-81
2023/10/18 03:20:55;;;;;;;0.20;0.10;;;;;;;;;;5014905;28;20410;-81
2023/10/18 03:23:22;;;;;;;0.20;0.10;;;;;;;;;;5032766;28;20053;-81
2023/10/18 03:25:58;;;;;;;0.20;0.10;;;;;;;;;;5007632;28;20890;-82
2023/10/18 03:28:25;;;;;;;0.20;0.00;;;;;;;;;;5009191;28;20517;-81
2023/10/18 03:30:54;;;;;;;0.20;0.03;;;;;;;;;;5024163;28;20070;-82
2023/10/18 03:33:20;;;;;;;0.20;0.03;;;;;;;;;;5007829;28;20045;-81
2023/10/18 03:36:06;;;;;;;0.20;0.10;;;;;;;;;;5006917;28;20052;-80
2023/10/18 03:38:39;;;;;;;0.20;0.10;;;;;;;;;;5006762;28;20042;-81
2023/10/18 03:41:08;;;;;;;0.95;0.35;;;;;;;;;;4993614;28;20116;-83
2023/10/18 03:43:36;;;;;;;0.63;0.32;;;;;;;;;;5008767;28;20510;-80
2023/10/18 03:46:29;;;;;;;0.20;0.10;;;;;;;;;;5013465;28;20156;-81
2023/10/18 03:48:56;;;;;;;0.20;0.10;;;;;;;;;;5009755;28;20649;-79
2023/10/18 03:51:23;;;;;;;0.20;0.00;;;;;;;;;;5024024;28;20476;-82
2023/10/18 03:53:56;;;;;;;0.20;0.10;;;;;;;;;;5024846;28;20045;-80
2023/10/18 03:56:22;;;;;;;;;;;;;;;;;;5026101;28;20459;-80
2023/10/18 03:59:01;;;;;;;0.20;0.10;;;;;;;;;;5028026;28;19928;-81
2023/10/18 04:01:44;;;;;;;0.20;0.10;;;;;;;;;;5008008;28;20049;-80
2023/10/18 04:04:18;;;;;;;0.20;0.10;;;;;;;;;;5031598;28;20060;-81
2023/10/18 04:06:44;;;;;;;0.20;0.10;;;;;;;;;;5018712;28;20464;-82
2023/10/18 04:09:14;;;;;;;0.20;0.00;;;;;;;;;;5015282;28;20051;-82
2023/10/18 04:11:41;;;;;;;0.20;0.10;;;;;;;;;;5014306;28;20052;-81
2023/10/18 04:14:10;;;;;;;0.52;0.52;;;;;;;;;;5017332;28;20069;-82
2023/10/18 04:16:36;;;;;;;0.73;0.22;;;;;;;;;;5015790;28;20046;-82
2023/10/18 04:19:07;;;;;;;0.20;0.15;;;;;;;;;;5010199;28;20037;-82
2023/10/18 04:21:34;;;;;;;0.20;0.10;;;;;;;;;;5011076;28;20572;-81
2023/10/18 04:24:03;;;;;;;0.57;0.40;;;;;;;;;;5001599;28;20034;-82
2023/10/18 04:26:29;;;;;;;0.20;0.10;;;;;;;;;;5009782;28;20053;-82
2023/10/18 04:29:01;;;;;;;0.20;0.10;;;;;;;;;;5009694;28;20593;-81
2023/10/18 04:31:27;;;;;;;0.20;0.10;;;;;;;;;;5015717;28;20045;-81
2023/10/18 04:33:54;;;;;;;0.20;0.10;;;;;;;;;;5015934;28;20331;-80
2023/10/18 04:36:23;;;;;;;0.20;0.10;;;;;;;;;;5015451;28;20045;-81
2023/10/18 04:38:51;;;;;;;0.20;0.10;;;;;;;;;;5009533;28;20510;-81
2023/10/18 04:43:49;;;;;;;0.20;0.10;;;;;;;;;;5012502;28;20041;-81
2023/10/18 04:46:15;;;;;;;0.20;0.10;;;;;;;;;;5031946;28;20045;-82
2023/10/18 04:54:03;;;;;;;0.20;0.10;;;;;;;;;;5015095;28;20041;-82
2023/10/18 04:56:34;;;;;;;0.20;0.00;;;;;;;;;;5005606;28;20788;-82
2023/10/18 04:59:00;;;;;;;0.20;0.00;;;;;;;;;;5011960;28;20116;-79
2023/10/18 05:01:35;;;;;;;0.35;0.13;;;;;;;;;;5018117;28;20635;-82
2023/10/18 05:04:48;;;;;;;0.20;0.10;;;;;;;;;;5010904;28;20112;-81
2023/10/18 05:06:54;;;;;;;0.20;0.00;;;;;;;;;;5000216;28;20142;-81
2023/10/18 05:14:50;;;;;;;0.20;0.00;;;;;;;;;;4990923;28;20056;-79
2023/10/18 05:17:23;;;;;;;0.20;0.00;;;;;;;;;;4978806;28;20037;-78
2023/10/18 05:19:56;;;;;;;0.20;0.03;;;;;;;;;;4994263;28;20038;-79
2023/10/18 05:22:25;;;;;;;0.20;0.15;;;;;;;;;;4980153;28;20068;-79
2023/10/18 05:27:39;;;;;;;0.20;0.10;;;;;;;;;;4996030;28;20088;-79
2023/10/18 05:30:14;;;;;;;0.20;0.10;;;;;;;;;;4992632;28;20041;-79
2023/10/18 05:32:49;;;;;;;0.20;0.05;;;;;;;;;;4988821;28;20052;-79
2023/10/18 05:35:26;;;;;;;0.20;0.00;;;;;;;;;;4993289;28;20117;-80
2023/10/18 05:38:19;;;;;;;0.20;0.13;;;;;;;;;;4982636;28;20046;-80
2023/10/18 05:41:18;;;;;;;0.20;0.10;;;;;;;;;;4989995;28;20046;-79
2023/10/18 05:43:36;;;;;;;0.20;0.10;;;;;;;;;;4992436;28;20041;-79
2023/10/18 05:46:07;;;;;;;0.20;0.10;;;;;;;;;;4990410;28;20041;-79
2023/10/18 05:48:40;;;;;;;0.20;0.00;;;;;;;;;;4995222;28;20061;-80
2023/10/18 05:53:52;;;;;;;0.20;0.10;;;;;;;;;;4984344;28;20069;-79
2023/10/18 05:56:24;;;;;;;1.48;0.63;;;;;;;;;;4969644;28;20042;-79
2023/10/18 05:59:25;;;;;;;0.20;0.10;;;;;;;;;;4969322;28;20545;-82
2023/10/18 06:01:39;;;;;;;0.20;0.10;;;;;;;;;;4984906;28;20050;-79
2023/10/18 06:04:05;;;;;;;0.20;0.13;;;;;;;;;;4972227;28;20414;-80
2023/10/18 06:06:31;;;;;;;0.20;0.10;;;;;;;;;;4990657;28;20053;-78
2023/10/18 06:08:57;;;;;;;0.20;0.17;;;;;;;;;;4986933;28;20042;-80
2023/10/18 06:11:25;;;;;;;0.40;0.38;;;;;;;;;;4976866;28;20265;-80
2023/10/18 06:13:53;;;;;;;0.20;0.10;;;;;;;;;;4987870;28;20069;-78
2023/10/18 06:16:19;;;;;;;0.40;0.40;;;;;;;;;;4975439;28;20126;-80
2023/10/18 06:18:48;;;;;;;0.20;0.20;;;;;;;;;;4976986;28;20061;-79
2023/10/18 06:21:20;;;;;;;0.30;0.13;;;;;;;;;;4970134;28;20042;-80
2023/10/18 06:23:56;;;;;;;0.20;0.10;;;;;;;;;;4996416;28;20054;-79
2023/10/18 06:26:28;;;;;;;0.20;0.10;;;;;;;;;;4990695;28;20570;-79
2023/10/18 06:28:56;;;;;;;;;;;;;;;;;;4972356;28;20493;-80
2023/10/18 06:31:24;;;;;;;0.20;0.05;;;;;;;;;;4973770;28;19926;-81
2023/10/18 06:33:56;;;;;;;0.20;0.00;;;;;;;;;;4975360;28;20044;-80
2023/10/18 06:36:24;;;;;;;0.20;0.10;;;;;;;;;;4984490;28;20034;-78
2023/10/18 06:38:50;;;;;;;0.20;0.10;;;;;;;;;;4969097;28;20042;-82
2023/10/18 06:41:20;;;;;;;0.20;0.00;;;;;;;;;;4979566;28;20481;-83
2023/10/18 06:43:49;;;;;;;0.20;0.10;;;;;;;;;;4982571;28;20045;-80
2023/10/18 06:46:28;;;;;;;0.20;0.00;;;;;;;;;;4990343;28;20042;-80
2023/10/18 06:48:55;;;;;;;0.20;0.10;;;;;;;;;;4988708;28;20160;-78
2023/10/18 06:51:33;;;;;;;0.20;0.00;;;;;;;;;;4982663;28;20041;-83
2023/10/18 06:54:07;;;;;;;0.20;0.10;;;;;;;;;;4975006;28;20071;-79
2023/10/18 06:56:39;;;;;;;0.20;0.08;;;;;;;;;;5011145;28;20033;-80
2023/10/18 06:59:08;;;;;;;0.20;0.10;;;;;;;;;;4984014;28;20033;-79
2023/10/18 07:01:41;;;;;;;0.35;0.35;;;;;;;;;;4968800;28;20042;-79
2023/10/18 07:04:15;;;;;;;0.20;0.10;;;;;;;;;;4978190;28;20041;-79
2023/10/18 07:06:44;;;;;;;0.20;0.00;;;;;;;;;;4971217;28;20129;-79
2023/10/18 07:09:24;;;;;;;0.20;0.15;;;;;;;;;;4971756;28;20145;-82
2023/10/18 07:11:51;;;;;;;0.25;0.15;;;;;;;;;;4983753;28;20080;-82
2023/10/18 07:14:19;;;;;;;0.30;0.20;;;;;;;;;;4983965;28;20352;-79
2023/10/18 07:16:48;;;;;;;0.20;0.20;;;;;;;;;;4972303;28;20038;-79
2023/10/18 07:19:27;;;;;;;0.20;0.10;;;;;;;;;;4983365;28;20038;-81
2023/10/18 07:21:57;;;;;;;0.20;0.10;;;;;;;;;;4983597;28;20129;-80
2023/10/18 07:24:34;;;;;;;0.55;0.55;;;;;;;;;;4984363;28;20046;-79
2023/10/18 07:27:03;;;;;;;0.20;0.10;;;;;;;;;;4983149;28;20045;-78
2023/10/18 07:29:29;;;;;;;0.20;0.00;;;;;;;;;;4970101;28;20068;-79
2023/10/18 07:31:59;;;;;;;0.20;0.00;;;;;;;;;;4972353;28;20041;-79
2023/10/18 07:34:36;;;;;;;0.20;0.10;;;;;;;;;;4986126;28;20125;-80
2023/10/18 07:37:17;;;;;;;0.20;0.10;;;;;;;;;;4974528;28;20100;-79
2023/10/18 07:39:44;;;;;;;0.20;0.10;;;;;;;;;;4987772;28;20074;-79
2023/10/18 07:42:11;;;;;;;0.20;0.10;;;;;;;;;;4967573;28;20040;-78
2023/10/18 07:44:41;;;;;;;0.20;0.10;;;;;;;;;;4987125;28;20042;-79
2023/10/18 07:47:12;;;;;;;0.20;0.20;;;;;;;;;;4981307;28;20311;-79
2023/10/18 07:49:40;;;;;;;0.50;0.38;;;;;;;;;;4984775;28;20061;-78
2023/10/18 07:52:06;;;;;;;0.20;0.00;;;;;;;;;;4983257;28;20075;-80
2023/10/18 07:54:35;;;;;;;0.20;0.20;;;;;;;;;;4970570;28;20129;-80
2023/10/18 07:57:01;;;;;;;0.20;0.00;;;;;;;;;;4987549;28;20041;-79
2023/10/18 07:59:27;;;;;;;0.30;0.30;;;;;;;;;;4968408;28;20049;-81
2023/10/18 08:02:12;;;;;;;0.32;0.30;;;;;;;;;;4989139;28;20096;-80
2023/10/18 08:04:39;;;;;;;0.20;0.10;;;;;;;;;;4981073;28;20090;-78
2023/10/18 08:07:10;;;;;;;0.20;0.10;;;;;;;;;;4971919;28;20033;-78
2023/10/18 08:09:40;;;;;;;0.20;0.08;;;;;;;;;;4972062;28;20038;-78
2023/10/18 08:12:07;;;;;;;0.20;0.10;;;;;;;;;;4972468;28;20030;-78
2023/10/18 08:14:34;;;;;;;0.20;0.00;;;;;;;;;;4982252;28;20329;-79
2023/10/18 08:17:09;;;;;;;0.20;0.10;;;;;;;;;;4988205;28;20082;-82
2023/10/18 08:19:44;;;;;;;0.20;0.13;;;;;;;;;;4975753;28;20160;-79
2023/10/18 08:24:41;;;;;;;0.50;0.30;;;;;;;;;;4990098;28;20080;-78
2023/10/18 08:27:10;;;;;;;0.20;0.13;;;;;;;;;;4966793;28;20124;-79
2023/10/18 08:29:37;;;;;;;0.20;0.10;;;;;;;;;;4978396;28;20041;-79
2023/10/18 08:32:14;;;;;;;0.20;0.20;;;;;;;;;;4983375;28;20685;-80
2023/10/18 08:34:41;;;;;;;0.20;0.20;;;;;;;;;;4987700;28;20049;-77
2023/10/18 08:37:11;;;;;;;0.20;0.00;;;;;;;;;;4973383;28;20407;-80
2023/10/18 08:39:39;;;;;;;0.20;0.10;;;;;;;;;;4996323;28;20117;-78
2023/10/18 08:42:14;;;;;;;0.20;0.10;;;;;;;;;;4990694;28;20092;-80
2023/10/18 08:44:40;;;;;;;0.30;0.30;;;;;;;;;;4995387;28;20049;-79
2023/10/18 08:49:34;;;;;;;0.20;0.10;;;;;;;;;;4992857;28;20041;-80
2023/10/18 08:52:08;;;;;;;0.20;0.20;;;;;;;;;;4977977;28;20038;-85
2023/10/18 08:54:36;;;;;;;0.30;0.20;;;;;;;;;;5002459;28;20039;-78
2023/10/18 08:57:09;;;;;;;0.20;0.10;;;;;;;;;;4983202;28;20356;-79
2023/10/18 08:59:51;;;;;;;0.38;0.28;;;;;;;;;;4990499;28;20061;-83
2023/10/18 09:02:18;;;;;;;0.20;0.00;;;;;;;;;;4990320;28;20078;-79
2023/10/18 09:04:55;;;;;;;1.13;0.47;;;;;;;;;;4989388;28;20041;-81
2023/10/18 09:10:13;;;;;;;0.25;0.25;;;;;;;;;;4985686;28;20050;-79
2023/10/18 09:17:54;;;;;;;0.60;0.20;;;;;;;;;;4992973;28;20137;-78
2023/10/18 09:20:25;;;;;;;0.20;0.03;;;;;;;;;;4965856;28;20053;-78
2023/10/18 09:22:51;;;;;;;0.30;0.30;;;;;;;;;;4978749;28;20133;-79
2023/10/18 09:25:17;;;;;;;0.20;0.00;;;;;;;;;;4976568;28;20049;-79
2023/10/18 09:27:45;;;;;;;0.20;0.05;;;;;;;;;;4985069;28;20042;-80
2023/10/18 09:30:14;;;;;;;0.20;0.10;;;;;;;;;;4990915;28;20057;-85
2023/10/18 09:32:43;;;;;;;0.20;0.00;;;;;;;;;;4968634;28;20531;-79
2023/10/18 09:35:09;;;;;;;0.20;0.00;;;;;;;;;;4984651;28;20470;-79
2023/10/18 09:37:35;;;;;;;0.20;0.13;;;;;;;;;;4975418;28;20506;-82
2023/10/18 09:40:03;;;;;;;0.20;0.00;;;;;;;;;;4988480;28;20046;-81
2023/10/18 09:42:29;;;;;;;0.20;0.10;;;;;;;;;;4984497;28;20042;-80
2023/10/18 09:44:55;;;;;;;0.20;0.03;;;;;;;;;;4969644;28;20072;-79
2023/10/18 09:47:24;;;;;;;0.20;0.10;;;;;;;;;;4988747;28;20061;-84
2023/10/18 09:49:51;;;;;;;0.20;0.00;;;;;;;;;;4979603;28;20099;-80
2023/10/18 09:52:18;;;;;;;0.20;0.10;;;;;;;;;;4992088;28;20045;-79
2023/10/18 09:54:50;;;;;;;0.20;0.10;;;;;;;;;;4988156;28;20061;-79
2023/10/18 09:57:23;;;;;;;;;;;;;;;;;;4988133;28;20097;-82
2023/10/18 09:59:51;;;;;;;0.20;0.10;;;;;;;;;;4993891;28;19917;-80
2023/10/18 10:02:17;;;;;;;0.20;0.00;;;;;;;;;;4987467;28;20231;-78
2023/10/18 10:04:44;;;;;;;0.20;0.10;;;;;;;;;;4977823;28;20049;-79
2023/10/18 10:10:08;;;;;;;0.20;0.10;;;;;;;;;;4988257;28;20564;-81
2023/10/18 10:12:34;;;;;;;0.20;0.00;;;;;;;;;;4987572;28;20038;-81
2023/10/18 10:15:01;;;;;;;0.20;0.00;;;;;;;;;;4991375;28;20045;-78
2023/10/18 10:17:29;;;;;;;0.20;0.10;;;;;;;;;;4986069;28;20581;-79
2023/10/18 10:19:58;;;;;;;0.20;0.00;;;;;;;;;;4989081;28;20057;-79
2023/10/18 10:22:25;;;;;;;0.20;0.10;;;;;;;;;;4988251;28;20464;-82
2023/10/18 10:25:04;;;;;;;0.30;0.20;;;;;;;;;;4980079;28;20041;-81
2023/10/18 10:30:03;;;;;;;0.20;0.10;;;;;;;;;;4993567;28;20046;-81
2023/10/18 10:32:30;;;;;;;1.08;0.40;;;;;;;;;;4993811;28;20050;-80
2023/10/18 10:35:15;;;;;;;0.20;0.10;;;;;;;;;;5000077;28;20092;-81
2023/10/18 10:37:49;;;;;;;0.20;0.20;;;;;;;;;;4995759;28;20039;-83
2023/10/18 10:43:02;;;;;;;0.20;0.10;;;;;;;;;;4999653;28;20099;-81
2023/10/18 10:45:38;;;;;;;0.20;0.10;;;;;;;;;;5009390;28;20050;-80
2023/10/18 10:51:06;;;;;;;0.20;0.10;;;;;;;;;;4990823;28;20057;-82
2023/10/18 10:53:44;;;;;;;0.20;0.10;;;;;;;;;;4991538;28;20763;-80
2023/10/18 10:56:20;;;;;;;0.35;0.15;;;;;;;;;;4987849;28;20026;-84
2023/10/18 10:59:02;;;;;;;0.20;0.00;;;;;;;;;;4973377;28;20048;-81
2023/10/18 11:01:43;;;;;;;0.20;0.10;;;;;;;;;;4995102;28;20038;-81
2023/10/18 11:04:15;;;;;;;0.20;0.10;;;;;;;;;;4990326;28;20068;-83
2023/10/18 11:06:44;;;;;;;0.20;0.08;;;;;;;;;;4979364;28;20050;-80
2023/10/18 11:09:17;;;;;;;0.20;0.10;;;;;;;;;;4977747;28;20044;-80
2023/10/18 11:11:46;;;;;;;0.20;0.00;;;;;;;;;;4985208;28;20073;-81
2023/10/18 11:14:18;;;;;;;0.20;0.00;;;;;;;;;;4981338;28;20074;-81
2023/10/18 11:16:46;;;;;;;0.20;0.10;;;;;;;;;;4988824;28;20029;-83
2023/10/18 11:19:15;;;;;;;0.20;0.10;;;;;;;;;;4993438;28;20042;-81
2023/10/18 11:21:41;;;;;;;0.20;0.05;;;;;;;;;;4991785;28;20438;-84
2023/10/18 11:24:11;;;;;;;0.30;0.30;;;;;;;;;;4990883;28;20073;-82
2023/10/18 11:26:46;;;;;;;0.20;0.10;;;;;;;;;;5008655;28;20058;-83
2023/10/18 11:29:12;;;;;;;0.20;0.00;;;;;;;;;;4988303;28;20410;-81
2023/10/18 11:31:41;;;;;;;0.20;0.10;;;;;;;;;;4988914;28;20132;-81
2023/10/18 11:34:13;;;;;;;0.20;0.00;;;;;;;;;;4980262;28;20290;-82
2023/10/18 11:36:42;;;;;;;0.20;0.20;;;;;;;;;;4977031;28;20104;-79
2023/10/18 11:39:32;;;;;;;0.20;0.10;;;;;;;;;;4990046;28;20034;-84
2023/10/18 11:41:59;;;;;;;0.22;0.20;;;;;;;;;;4977775;28;20113;-82
2023/10/18 11:44:33;;;;;;;0.38;0.22;;;;;;;;;;4974110;28;20050;-84
2023/10/18 11:47:03;;;;;;;0.20;0.00;;;;;;;;;;4973013;28;20046;-80
2023/10/18 11:49:39;;;;;;;0.20;0.10;;;;;;;;;;4972642;28;20042;-85
2023/10/18 11:52:16;;;;;;;0.20;0.10;;;;;;;;;;4990325;28;20041;-82
2023/10/18 11:54:43;;;;;;;0.20;0.00;;;;;;;;;;4975336;28;20522;-83
2023/10/18 11:57:43;;;;;;;0.20;0.00;;;;;;;;;;5007102;28;20026;-80
2023/10/18 12:02:51;;;;;;;0.43;0.25;;;;;;;;;;4991680;28;20052;-81
2023/10/18 12:05:23;;;;;;;0.20;0.10;;;;;;;;;;4990843;28;20038;-83
2023/10/18 12:07:49;;;;;;;0.30;0.10;;;;;;;;;;4991757;28;20041;-83
2023/10/18 12:10:34;;;;;;;0.32;0.32;;;;;;;;;;4992728;28;20038;-83
2023/10/18 12:13:05;;;;;;;0.20;0.10;;;;;;;;;;4980762;28;20234;-80
2023/10/18 12:15:31;;;;;;;0.20;0.10;;;;;;;;;;4991225;28;20069;-84
2023/10/18 12:18:01;;;;;;;0.32;0.20;;;;;;;;;;4995061;28;20053;-84
2023/10/18 12:20:35;;;;;;;0.20;0.00;;;;;;;;;;4992760;28;20041;-82
2023/10/18 12:23:10;;;;;;;0.20;0.03;;;;;;;;;;5004125;28;20076;-81
2023/10/18 12:25:38;;;;;;;0.20;0.10;;;;;;;;;;4988975;28;20042;-81
2023/10/18 12:28:12;;;;;;;0.20;0.10;;;;;;;;;;4995253;28;20453;-82
2023/10/18 12:30:38;;;;;;;0.20;0.10;;;;;;;;;;4974664;28;20042;-81
2023/10/18 12:33:05;;;;;;;0.20;0.13;;;;;;;;;;4994222;28;20041;-81
2023/10/18 12:38:14;;;;;;;0.20;0.10;;;;;;;;;;5025805;28;20080;-83
2023/10/18 12:40:51;;;;;;;0.20;0.10;;;;;;;;;;5000548;28;20056;-85
2023/10/18 12:43:20;;;;;;;4.15;0.38;;;;;;;;;;4995165;28;20048;-83
2023/10/18 12:45:50;;;;;;;0.35;0.10;;;;;;;;;;5000507;28;20997;-84
2023/10/18 12:48:22;;;;;;;0.20;0.10;;;;;;;;;;4993318;28;20446;-80
2023/10/18 12:50:59;;;;;;;0.20;0.05;;;;;;;;;;4993189;28;20037;-82
2023/10/18 12:55:57;;;;;;;0.20;0.10;;;;;;;;;;4993048;28;20469;-81
2023/10/18 12:58:28;;;;;;;;;;;;;;;;;;4990593;28;20395;-81
2023/10/18 13:01:04;;;;;;;0.20;0.20;;;;;;;;;;4995617;28;19927;-82
2023/10/18 13:03:37;;;;;;;0.20;0.10;;;;;;;;;;4989226;28;20127;-83
2023/10/18 13:06:06;;;;;;;0.20;0.13;;;;;;;;;;4996436;28;20033;-82
2023/10/18 13:08:37;;;;;;;0.20;0.10;;;;;;;;;;4993990;28;20054;-83
2023/10/18 13:13:30;;;;;;;0.20;0.10;;;;;;;;;;5000121;28;20052;-80
2023/10/18 13:15:59;;;;;;;0.20;0.00;;;;;;;;;;5011539;28;20465;-84
2023/10/18 13:18:29;;;;;;;0.20;0.00;;;;;;;;;;4994491;28;20478;-82
2023/10/18 13:20:55;;;;;;;1.23;1.13;;;;;;;;;;4992936;28;20046;-82
2023/10/18 13:23:29;;;;;;;0.30;0.20;;;;;;;;;;4996215;28;20510;-83
2023/10/18 13:25:55;;;;;;;0.20;0.10;;;;;;;;;;5012268;28;20053;-82
2023/10/18 13:28:24;;;;;;;0.20;0.10;;;;;;;;;;4995042;28;20042;-84
2023/10/18 13:30:53;;;;;;;2.33;0.50;;;;;;;;;;4993605;28;20418;-81
2023/10/18 13:33:20;;;;;;;0.20;0.10;;;;;;;;;;4994190;28;20037;-83
2023/10/18 13:35:49;;;;;;;0.20;0.10;;;;;;;;;;5007240;28;21122;-82
2023/10/18 13:38:15;;;;;;;0.20;0.10;;;;;;;;;;4994546;28;20093;-83
2023/10/18 13:40:43;;;;;;;0.20;0.10;;;;;;;;;;4992324;28;20101;-81
2023/10/18 13:43:09;;;;;;;0.20;0.10;;;;;;;;;;4996990;28;20050;-80
2023/10/18 13:45:37;;;;;;;0.38;0.35;;;;;;;;;;4994631;28;20042;-81
2023/10/18 13:48:03;;;;;;;0.25;0.10;;;;;;;;;;4990454;28;20041;-83
2023/10/18 13:50:35;;;;;;;0.20;0.10;;;;;;;;;;4993704;28;20099;-86
2023/10/18 13:53:01;;;;;;;0.38;0.25;;;;;;;;;;4992634;28;20042;-80
2023/10/18 13:55:27;;;;;;;0.40;0.20;;;;;;;;;;4991852;28;20030;-82
2023/10/18 13:57:54;;;;;;;0.20;0.10;;;;;;;;;;4991388;28;20142;-83
2023/10/18 14:00:22;;;;;;;0.20;0.10;;;;;;;;;;4992041;28;20053;-82
2023/10/18 14:02:48;;;;;;;0.52;0.52;;;;;;;;;;4992137;28;20100;-84
2023/10/18 14:05:14;;;;;;;0.20;0.10;;;;;;;;;;4989491;28;20038;-84
2023/10/18 14:07:41;;;;;;;0.20;0.10;;;;;;;;;;4988306;28;20045;-83
2023/10/18 14:10:20;;;;;;;0.20;0.15;;;;;;;;;;4991994;28;20109;-84
2023/10/18 14:12:47;;;;;;;0.65;0.65;;;;;;;;;;4992676;28;20243;-83
2023/10/18 14:15:22;;;;;;;0.20;0.17;;;;;;;;;;4989336;28;20034;-84
2023/10/18 14:17:52;;;;;;;0.20;0.00;;;;;;;;;;4991925;28;20049;-81
2023/10/18 14:20:24;;;;;;;0.20;0.15;;;;;;;;;;4992790;28;20101;-82
2023/10/18 14:22:53;;;;;;;;;;;;;;;;;;4996481;28;20123;-83
2023/10/18 14:25:19;;;;;;;0.20;0.10;;;;;;;;;;4988170;28;19917;-83
2023/10/18 14:27:45;;;;;;;0.20;0.00;;;;;;;;;;4971397;28;20464;-83
2023/10/18 14:30:12;;;;;;;0.20;0.10;;;;;;;;;;4992839;28;20038;-82
2023/10/18 14:32:44;;;;;;;0.80;0.45;;;;;;;;;;4989227;28;20502;-81
2023/10/18 14:35:10;;;;;;;0.20;0.10;;;;;;;;;;4990758;28;20033;-81
2023/10/18 14:37:40;;;;;;;0.68;0.63;;;;;;;;;;4991288;28;20041;-85
2023/10/18 14:40:06;;;;;;;0.20;0.08;;;;;;;;;;4989994;28;20034;-82
2023/10/18 14:42:32;;;;;;;0.20;0.10;;;;;;;;;;4990644;28;20044;-83
2023/10/18 14:44:58;;;;;;;0.20;0.03;;;;;;;;;;4985963;28;20041;-82
2023/10/18 14:47:31;;;;;;;0.20;0.10;;;;;;;;;;4991616;28;20061;-81
2023/10/18 14:49:57;;;;;;;0.20;0.00;;;;;;;;;;4993341;28;20045;-83
2023/10/18 14:52:25;;;;;;;2.30;0.50;;;;;;;;;;4991605;28;20288;-82
2023/10/18 14:54:51;;;;;;;0.20;0.10;;;;;;;;;;4998119;28;20400;-82
2023/10/18 14:57:19;;;;;;;0.30;0.22;;;;;;;;;;4996513;28;20133;-80
2023/10/18 14:59:49;;;;;;;0.20;0.05;;;;;;;;;;4985119;28;20107;-83
2023/10/18 15:02:16;;;;;;;1.27;0.65;;;;;;;;;;4995431;28;20038;-83
2023/10/18 15:04:43;;;;;;;0.20;0.00;;;;;;;;;;4993395;28;20050;-82
2023/10/18 15:07:09;;;;;;;0.82;0.52;;;;;;;;;;4995087;28;20092;-81
2023/10/18 15:09:35;;;;;;;0.20;0.10;;;;;;;;;;4993293;28;20044;-82
2023/10/18 15:12:01;;;;;;;0.77;0.77;;;;;;;;;;4992167;28;20120;-83
2023/10/18 15:14:28;;;;;;;0.28;0.20;;;;;;;;;;5011029;28;20621;-85
2023/10/18 15:16:54;;;;;;;0.20;0.10;;;;;;;;;;4996043;28;20073;-82
2023/10/18 15:19:20;;;;;;;0.20;0.10;;;;;;;;;;5011662;28;20037;-81
2023/10/18 15:21:46;;;;;;;0.50;0.47;;;;;;;;;;4993072;28;20446;-82
2023/10/18 15:24:15;;;;;;;0.20;0.10;;;;;;;;;;4993626;28;20478;-80
2023/10/18 15:26:41;;;;;;;0.20;0.10;;;;;;;;;;4978576;28;20530;-79
2023/10/18 15:29:08;;;;;;;0.20;0.00;;;;;;;;;;4988689;28;20034;-85
2023/10/18 15:31:35;;;;;;;0.20;0.10;;;;;;;;;;4994374;28;20069;-80
2023/10/18 15:34:01;;;;;;;0.20;0.10;;;;;;;;;;4993421;28;20659;-83
2023/10/18 15:36:28;;;;;;;0.20;0.10;;;;;;;;;;4987197;28;20125;-80
2023/10/18 15:38:55;;;;;;;0.20;0.10;;;;;;;;;;4988282;28;20629;-82
2023/10/18 15:41:24;;;;;;;0.20;0.15;;;;;;;;;;4991462;28;20513;-81
2023/10/18 15:43:52;;;;;;;0.20;0.10;;;;;;;;;;4996850;28;20125;-81
2023/10/18 15:46:45;;;;;;;0.20;0.10;;;;;;;;;;5011006;28;20041;-82
2023/10/18 15:49:11;;;;;;;0.20;0.10;;;;;;;;;;4972931;28;20064;-80
2023/10/18 15:51:37;;;;;;;0.20;0.08;;;;;;;;;;5013449;28;20034;-83
2023/10/18 15:54:10;;;;;;;0.20;0.17;;;;;;;;;;4996662;28;20414;-83
2023/10/18 15:56:36;;;;;;;0.20;0.00;;;;;;;;;;5011575;28;20362;-83